Time;durP1;ratioP1;P1;durP2;ratioP2;P2;SDS_P1;SDS_P2;PMS_P1;PMS_P2;Temp;Humidity;BMP_temperature;BMP_pressure;BME280_temperature;BME280_humidity;BME280_pressure;Samples;Min_cycle;Max_cycle;Signal;HPM_P1;HPM_P2
2021/08/02 04:16:11;;;;;;;8.38;4.07;;;;;;;13.05;100.00;98628.47;5550588;23;20048;-72
2021/08/02 04:18:37;;;;;;;8.30;3.75;;;;;;;13.11;100.00;98617.84;4915693;29;20044;-72
2021/08/02 04:21:02;;;;;;;8.65;3.47;;;;;;;13.19;100.00;98625.41;4915634;29;20107;-71
2021/08/02 04:23:27;;;;;;;3.83;3.22;;;;;;;13.23;100.00;98626.19;4915531;29;20043;-71
2021/08/02 04:25:53;;;;;;;8.10;3.00;;;;;;;13.28;100.00;98629.50;4915597;29;20397;-71
2021/08/02 04:28:18;;;;;;;5.85;3.50;;;;;;;13.17;100.00;98632.41;4915523;29;20058;-70
2021/08/02 04:30:44;;;;;;;7.97;3.38;;;;;;;13.33;100.00;98638.03;4969243;23;20415;-69
2021/08/02 04:33:09;;;;;;;6.40;2.78;;;;;;;13.42;100.00;98647.28;4934087;29;20038;-69
2021/08/02 04:35:34;;;;;;;10.43;3.72;;;;;;;13.45;100.00;98642.84;4926594;29;20046;-70
2021/08/02 04:38:00;;;;;;;4.68;3.17;;;;;;;13.56;100.00;98648.56;4934296;29;20396;-71
2021/08/02 04:40:25;;;;;;;4.35;3.10;;;;;;;13.66;100.00;98645.66;4934801;29;20027;-71
2021/08/02 04:42:50;;;;;;;7.68;2.83;;;;;;;13.71;100.00;98648.97;4934315;29;20028;-71
2021/08/02 04:45:16;;;;;;;4.55;3.25;;;;;;;13.65;100.00;98649.19;4934496;29;20115;-72
2021/08/02 04:47:41;;;;;;;11.30;3.30;;;;;;;13.73;100.00;98657.56;4934461;29;20078;-70
2021/08/02 04:50:07;;;;;;;3.63;2.95;;;;;;;13.71;100.00;98651.56;4934305;29;20036;-70
2021/08/02 04:52:32;;;;;;;9.23;2.97;;;;;;;13.72;100.00;98650.66;4934072;29;20028;-70
2021/08/02 04:54:58;;;;;;;8.32;3.10;;;;;;;13.77;100.00;98648.75;4934278;29;20023;-69
2021/08/02 04:57:23;;;;;;;3.17;2.45;;;;;;;13.86;100.00;98651.06;4936033;29;20385;-70
2021/08/02 04:59:48;;;;;;;8.63;2.50;;;;;;;14.01;100.00;98645.31;4937761;29;20028;-71
2021/08/02 05:02:14;;;;;;;4.63;2.92;;;;;;;14.11;99.52;98654.53;4932497;29;20065;-70
2021/08/02 05:04:39;;;;;;;6.88;2.67;;;;;;;14.02;100.00;98649.66;4926205;29;20469;-69
2021/08/02 05:07:04;;;;;;;7.80;3.13;;;;;;;14.12;99.97;98650.19;4925778;29;20032;-68
2021/08/02 05:09:30;;;;;;;2.67;2.40;;;;;;;14.31;99.03;98645.16;4929647;29;20042;-71
2021/08/02 05:11:55;;;;;;;6.95;2.88;;;;;;;14.34;98.50;98648.53;4934506;29;20035;-70
2021/08/02 05:14:20;;;;;;;6.30;2.90;;;;;;;14.50;98.02;98651.47;4931556;29;20110;-70
2021/08/02 05:16:46;;;;;;;14.15;3.33;;;;;;;14.53;97.62;98651.38;4934018;29;20051;-70
2021/08/02 05:19:11;;;;;;;5.00;2.80;;;;;;;14.39;97.38;98657.03;4935599;29;20124;-70
2021/08/02 05:21:37;;;;;;;5.15;2.85;;;;;;;14.47;98.20;98659.38;4936584;29;20668;-71
2021/08/02 05:24:03;;;;;;;3.95;2.70;;;;;;;14.53;98.10;98655.72;4932570;29;20028;-69
2021/08/02 05:26:29;;;;;;;8.10;3.15;;;;;;;14.45;97.66;98653.34;4923856;29;20058;-69
2021/08/02 05:28:54;;;;;;;7.20;3.08;;;;;;;14.55;99.68;98651.28;4923659;29;20058;-69
2021/08/02 05:31:19;;;;;;;5.70;2.90;;;;;;;14.41;99.50;98646.56;4932368;29;20030;-69
2021/08/02 05:33:45;;;;;;;5.22;3.25;;;;;;;14.61;98.36;98643.28;4929827;29;20062;-71
2021/08/02 05:36:10;;;;;;;6.03;3.17;;;;;;;14.68;97.42;98649.09;4933329;29;20063;-71
2021/08/02 05:38:35;;;;;;;5.07;2.90;;;;;;;14.76;96.21;98649.69;4934022;29;20471;-71
2021/08/02 05:41:01;;;;;;;6.80;2.65;;;;;;;14.79;97.65;98654.78;4934571;29;20036;-69
2021/08/02 05:43:26;;;;;;;6.50;3.45;;;;;;;15.03;97.17;98653.00;4930370;29;20016;-69
2021/08/02 05:45:52;;;;;;;6.18;2.65;;;;;;;15.07;96.68;98650.22;4932901;29;20094;-71
2021/08/02 05:48:18;;;;;;;8.10;2.67;;;;;;;15.14;97.04;98643.88;4930496;29;20020;-69
2021/08/02 05:50:43;;;;;;;6.53;3.30;;;;;;;15.30;96.11;98658.94;4932626;29;20031;-71
2021/08/02 05:53:08;;;;;;;4.25;2.88;;;;;;;15.36;95.37;98653.47;4932751;29;20043;-71
2021/08/02 05:55:34;;;;;;;4.45;2.92;;;;;;;15.26;94.17;98654.72;4933695;29;20027;-69
2021/08/02 05:57:59;;;;;;;5.18;2.78;;;;;;;15.28;93.47;98658.13;4931419;29;20118;-69
2021/08/02 06:00:25;;;;;;;3.30;2.20;;;;;;;15.34;93.93;98665.75;4933390;29;20056;-69
2021/08/02 06:02:51;;;;;;;2.63;2.38;;;;;;;15.37;93.96;98671.66;4928014;29;20122;-70
2021/08/02 06:05:16;;;;;;;6.30;2.85;;;;;;;15.32;94.46;98668.38;4933125;29;20119;-71
2021/08/02 06:07:43;;;;;;;7.07;3.03;;;;;;;15.39;94.45;98659.41;4933215;29;20485;-69
2021/08/02 06:10:10;;;;;;;7.68;2.05;;;;;;;15.36;93.00;98666.50;4933068;29;20118;-69
2021/08/02 06:12:36;;;;;;;6.32;2.80;;;;;;;15.31;93.93;98671.06;4926164;29;20123;-69
2021/08/02 06:15:01;;;;;;;6.40;2.40;;;;;;;15.39;93.98;98675.09;4934050;29;20552;-69
2021/08/02 06:17:26;;;;;;;5.25;2.15;;;;;;;15.36;93.82;98684.78;4929861;29;20123;-69
2021/08/02 06:19:52;;;;;;;2.38;2.17;;;;;;;15.53;93.38;98682.38;4932889;29;20015;-69
2021/08/02 06:22:17;;;;;;;3.67;2.00;;;;;;;15.68;93.01;98676.56;4933832;29;20051;-71
2021/08/02 06:24:43;;;;;;;5.15;2.47;;;;;;;15.93;92.40;98672.97;4932312;29;20031;-70
2021/08/02 06:27:08;;;;;;;4.65;2.95;;;;;;;15.96;90.89;98680.69;4932679;29;20051;-69
2021/08/02 06:29:34;;;;;;;4.88;3.10;;;;;;;15.78;91.34;98689.25;4933792;29;20027;-71
2021/08/02 06:31:59;;;;;;;10.30;3.00;;;;;;;15.42;90.89;98679.31;4930852;29;20035;-71
2021/08/02 06:34:25;;;;;;;6.63;2.65;;;;;;;15.62;90.80;98689.00;4929050;29;20074;-69
2021/08/02 06:36:50;;;;;;;6.75;2.63;;;;;;;15.86;90.93;98689.81;4931565;29;20405;-71
2021/08/02 06:39:15;;;;;;;8.50;3.05;;;;;;;16.08;90.40;98695.84;4932979;29;20028;-71
2021/08/02 06:41:40;;;;;;;8.25;2.78;;;;;;;16.16;89.20;98688.53;4932684;29;20027;-69
2021/08/02 06:44:06;;;;;;;3.85;2.53;;;;;;;16.10;87.38;98683.56;4932931;29;20023;-71
2021/08/02 06:46:31;;;;;;;6.43;2.15;;;;;;;16.12;87.35;98686.97;4923662;29;20409;-69
2021/08/02 06:48:57;;;;;;;2.65;2.40;;;;;;;16.34;87.71;98697.38;4932670;29;20075;-70
2021/08/02 06:51:22;;;;;;;5.45;2.83;;;;;;;16.17;90.00;98695.44;4932351;29;20028;-69
2021/08/02 06:53:47;;;;;;;11.82;2.38;;;;;;;16.41;87.52;98692.72;4928633;29;20038;-71
2021/08/02 06:56:13;;;;;;;12.48;2.13;;;;;;;16.63;85.19;98692.63;4932187;29;20023;-69
2021/08/02 06:58:38;;;;;;;5.57;2.55;;;;;;;16.29;84.03;98698.47;4928534;29;20024;-69
2021/08/02 07:01:03;;;;;;;4.05;2.30;;;;;;;16.21;83.55;98695.34;4932377;29;20028;-71
2021/08/02 07:03:29;;;;;;;4.15;2.20;;;;;;;16.34;83.67;98696.50;4932400;29;20102;-69
2021/08/02 07:05:54;;;;;;;4.97;2.35;;;;;;;16.56;83.63;98704.28;4925908;29;20080;-71
2021/08/02 07:08:20;;;;;;;6.13;1.95;;;;;;;16.91;81.93;98698.38;4932064;29;20015;-69
2021/08/02 07:10:45;;;;;;;3.33;1.95;;;;;;;17.28;79.79;98701.94;4926737;29;20028;-70
2021/08/02 07:13:11;;;;;;;4.18;2.03;;;;;;;17.38;78.29;98697.13;4931359;29;20023;-69
2021/08/02 07:15:36;;;;;;;5.28;2.35;;;;;;;17.51;78.50;98695.63;4932486;29;20515;-71
2021/08/02 07:18:01;;;;;;;1.88;1.77;;;;;;;17.40;80.40;98700.50;4932755;29;20033;-70
2021/08/02 07:20:27;;;;;;;3.90;1.90;;;;;;;17.82;76.89;98700.25;4930808;29;20020;-71
2021/08/02 07:22:52;;;;;;;4.38;2.00;;;;;;;17.88;75.96;98696.47;4932508;29;20023;-70
2021/08/02 07:25:18;;;;;;;2.65;1.65;;;;;;;17.98;74.96;98697.72;4931951;28;20079;-70
2021/08/02 07:27:43;;;;;;;4.20;1.80;;;;;;;17.70;75.77;98699.06;4932033;29;20159;-71
2021/08/02 07:30:09;;;;;;;3.40;1.73;;;;;;;17.99;75.70;98699.44;4932061;29;20077;-70
2021/08/02 07:32:35;;;;;;;6.05;1.80;;;;;;;17.78;76.80;98700.47;4932417;29;20026;-70
2021/08/02 07:35:01;;;;;;;2.13;1.50;;;;;;;17.85;76.21;98694.03;4932840;29;20107;-71
2021/08/02 07:37:26;;;;;;;6.15;2.03;;;;;;;17.59;76.82;98701.31;4931465;29;20016;-70
2021/08/02 07:39:51;;;;;;;3.53;1.73;;;;;;;17.82;76.90;98702.03;4925131;29;20091;-70
2021/08/02 07:42:17;;;;;;;4.82;1.92;;;;;;;18.09;75.47;98695.44;4922744;29;20047;-72
2021/08/02 07:44:42;;;;;;;4.97;2.45;;;;;;;17.94;75.62;98696.19;4930381;29;20034;-70
2021/08/02 07:47:07;;;;;;;4.95;1.80;;;;;;;18.45;73.86;98702.34;4930147;29;20111;-70
2021/08/02 07:49:33;;;;;;;4.13;1.60;;;;;;;18.70;74.96;98702.81;4924897;29;20035;-70
2021/08/02 07:51:58;;;;;;;5.40;1.77;;;;;;;18.74;75.07;98701.72;4926245;29;20040;-70
2021/08/02 07:54:23;;;;;;;1.98;1.58;;;;;;;19.34;68.58;98692.41;4930358;29;20036;-72
2021/08/02 07:56:49;;;;;;;3.58;1.67;;;;;;;19.39;70.59;98693.00;4930408;29;20547;-72
2021/08/02 07:59:14;;;;;;;4.35;1.88;;;;;;;19.82;70.82;98699.34;4927925;29;20024;-70
2021/08/02 08:01:39;;;;;;;5.10;1.85;;;;;;;20.00;68.20;98702.72;4930884;29;20024;-70
2021/08/02 08:04:05;;;;;;;5.68;1.52;;;;;;;20.20;67.59;98699.78;4931734;29;20023;-70
2021/08/02 08:06:30;;;;;;;3.42;1.52;;;;;;;20.81;65.03;98705.00;4931301;29;20035;-70
2021/08/02 08:08:55;;;;;;;5.03;2.00;;;;;;;19.67;67.20;98702.84;4931814;29;20024;-71
2021/08/02 08:11:21;;;;;;;2.70;1.40;;;;;;;20.39;65.73;98698.69;4928214;29;20799;-72
2021/08/02 08:13:46;;;;;;;1.73;1.30;;;;;;;20.64;61.26;98703.38;4932147;29;20124;-72
2021/08/02 08:16:11;;;;;;;2.55;1.40;;;;;;;21.11;62.00;98700.47;4929805;29;20035;-71
2021/08/02 08:18:37;;;;;;;2.17;1.42;;;;;;;21.75;57.35;98699.03;4932441;29;20039;-71
2021/08/02 08:21:03;;;;;;;3.97;1.20;;;;;;;21.97;57.21;98700.28;4927888;29;20048;-70
2021/08/02 08:23:31;;;;;;;2.30;1.52;;;;;;;21.86;56.40;98700.16;4931611;29;20028;-70
2021/08/02 08:25:57;;;;;;;2.63;1.40;;;;;;;21.76;57.30;98698.13;4931946;29;20028;-70
2021/08/02 08:28:23;;;;;;;3.03;1.33;;;;;;;21.97;58.23;98697.66;4930970;29;20030;-70
2021/08/02 08:30:48;;;;;;;2.40;1.25;;;;;;;21.17;59.68;98699.25;4932233;29;20024;-70
2021/08/02 08:33:14;;;;;;;1.58;1.35;;;;;;;21.54;59.61;98700.44;4930883;29;20020;-70
2021/08/02 08:35:39;;;;;;;2.38;1.42;;;;;;;22.49;55.26;98700.31;4934325;29;20087;-70
2021/08/02 08:38:06;;;;;;;1.67;1.25;;;;;;;22.98;54.45;98694.31;4931072;29;20104;-70
2021/08/02 08:40:33;;;;;;;2.58;1.15;;;;;;;23.46;51.94;98690.94;4934815;29;20062;-70
2021/08/02 08:42:59;;;;;;;6.53;1.30;;;;;;;24.39;49.39;98696.47;4935395;29;20019;-70
2021/08/02 08:45:24;;;;;;;8.35;1.30;;;;;;;25.12;46.83;98693.44;4935160;29;20055;-70
2021/08/02 08:47:51;;;;;;;1.77;1.17;;;;;;;25.21;45.50;98698.03;4935368;29;20036;-70
2021/08/02 08:50:17;;;;;;;1.20;1.02;;;;;;;24.77;50.12;98697.03;4934551;29;20492;-70
2021/08/02 08:52:44;;;;;;;3.03;1.40;;;;;;;26.10;47.73;98685.50;4934909;29;20030;-70
2021/08/02 08:55:12;;;;;;;3.60;1.10;;;;;;;25.17;48.45;98693.91;4935312;29;20050;-70
2021/08/02 08:57:38;;;;;;;4.47;1.30;;;;;;;26.90;42.31;98688.41;4931132;29;20622;-70
2021/08/02 09:00:07;;;;;;;2.00;1.40;;;;;;;25.40;43.59;98694.75;4934701;29;20028;-70
2021/08/02 09:02:32;;;;;;;5.57;1.33;;;;;;;23.60;47.80;98688.16;4932659;29;20031;-70
2021/08/02 09:05:00;;;;;;;8.13;1.27;;;;;;;24.95;49.07;98688.56;4930291;29;20036;-70
2021/08/02 09:07:32;;;;;;;2.03;1.10;;;;;;;24.85;46.38;98689.31;4934657;29;20023;-70
2021/08/02 09:09:59;;;;;;;3.42;1.63;;;;;;;25.64;45.30;98687.44;4934671;29;20028;-72
2021/08/02 09:12:25;;;;;;;4.90;1.25;;;;;;;23.30;49.92;98689.38;4929167;29;20039;-72
2021/08/02 09:14:55;;;;;;;4.05;1.17;;;;;;;25.37;45.62;98679.91;4932101;29;20052;-71
2021/08/02 09:17:35;;;;;;;3.67;1.42;;;;;;;25.93;41.81;98680.75;4926971;29;20082;-71
2021/08/02 09:20:06;;;;;;;3.60;1.33;;;;;;;26.99;42.29;98665.50;4934106;29;20016;-70
2021/08/02 09:22:35;;;;;;;6.03;1.20;;;;;;;28.34;38.68;98667.56;4928447;29;20436;-72
2021/08/02 09:25:10;;;;;;;6.37;1.10;;;;;;;28.91;37.78;98679.06;4931134;29;20040;-71
2021/08/02 09:27:37;;;;;;;3.35;1.30;;;;;;;29.07;36.70;98672.28;4934443;29;20028;-71
2021/08/02 09:30:22;;;;;;;3.30;1.25;;;;;;;29.20;36.68;98675.44;4933887;29;20421;-70
2021/08/02 09:32:56;;;;;;;8.27;0.90;;;;;;;30.83;33.37;98668.97;4930399;29;20027;-71
2021/08/02 09:35:42;;;;;;;5.95;1.23;;;;;;;28.93;37.36;98682.44;4933313;29;20055;-72
2021/08/02 09:38:12;;;;;;;4.20;1.00;;;;;;;27.14;41.83;98674.00;4933722;29;20425;-70
2021/08/02 09:40:42;;;;;;;2.15;1.05;;;;;;;26.51;42.01;98670.59;4934680;29;20027;-71
2021/08/02 09:43:17;;;;;;;2.20;0.93;;;;;;;27.31;38.49;98660.00;4929437;29;20438;-71
2021/08/02 09:45:57;;;;;;;1.77;1.02;;;;;;;25.22;42.76;98670.53;4932831;29;20055;-71
2021/08/02 09:48:43;;;;;;;2.80;1.08;;;;;;;26.74;38.85;98655.28;4933366;29;20031;-71
2021/08/02 09:51:18;;;;;;;0.73;0.70;;;;;;;27.58;38.03;98661.22;4932419;29;20023;-73
2021/08/02 09:53:51;;;;;;;4.05;1.13;;;;;;;28.19;37.00;98647.66;4932965;29;20042;-71
2021/08/02 09:56:22;;;;;;;5.78;0.90;;;;;;;32.02;33.46;98643.94;4933649;29;20043;-71
2021/08/02 09:58:48;;;;;;;2.42;0.90;;;;;;;27.55;37.96;98650.81;4933666;28;20051;-72
2021/08/02 10:01:15;;;;;;;1.98;1.10;;;;;;;26.91;43.36;98642.22;4929397;29;20524;-72
2021/08/02 10:03:41;;;;;;;1.33;1.08;;;;;;;28.79;35.15;98642.03;4933219;29;20078;-72
2021/08/02 10:06:07;;;;;;;6.00;0.98;;;;;;;29.68;33.68;98635.13;4929643;29;20020;-71
2021/08/02 10:08:34;;;;;;;1.80;1.00;;;;;;;28.71;35.68;98640.09;4933588;29;20034;-72
2021/08/02 10:10:59;;;;;;;2.58;1.02;;;;;;;27.00;41.12;98642.41;4933405;29;20031;-72
2021/08/02 10:13:28;;;;;;;2.72;1.10;;;;;;;25.30;42.61;98649.53;4933713;29;20050;-72
2021/08/02 10:15:56;;;;;;;3.92;1.05;;;;;;;22.20;50.79;98644.22;4931425;29;20472;-70
2021/08/02 10:18:24;;;;;;;5.25;1.40;;;;;;;22.11;49.42;98647.47;4934428;29;20032;-70
2021/08/02 10:20:49;;;;;;;2.55;1.10;;;;;;;23.05;47.89;98633.94;4933340;29;20154;-70
2021/08/02 10:23:25;;;;;;;2.65;1.20;;;;;;;24.11;46.66;98634.97;4933251;29;20481;-71
2021/08/02 10:25:50;;;;;;;2.90;1.17;;;;;;;24.20;44.92;98628.97;4933130;29;20102;-71
2021/08/02 10:28:18;;;;;;;2.80;2.10;;;;;;;24.25;45.33;98626.81;4933927;29;20024;-72
2021/08/02 10:31:04;;;;;;;1.50;1.25;;;;;;;25.55;43.08;98611.25;4971879;23;20147;-71
2021/08/02 10:33:37;;;;;;;2.15;1.38;;;;;;;25.38;43.78;98620.59;4933231;29;20028;-72
2021/08/02 10:36:14;;;;;;;7.13;1.50;;;;;;;24.35;43.89;98617.19;4933388;29;20027;-73
2021/08/02 10:38:51;;;;;;;18.60;8.45;;;;;;;23.16;47.65;98615.53;4933977;29;20034;-72
2021/08/02 10:41:30;;;;;;;7.40;4.50;;;;;;;22.50;48.72;98606.09;4910599;29;20078;-72
2021/08/02 10:43:56;;;;;;;4.22;1.15;;;;;;;22.01;49.54;98609.44;4912749;29;20032;-73
2021/08/02 10:46:25;;;;;;;2.05;1.30;;;;;;;22.49;50.13;98609.69;4912581;29;20141;-72
2021/08/02 10:48:53;;;;;;;3.17;1.37;;;;;;;20.44;57.43;98641.38;4914623;29;20028;-72
2021/08/02 10:51:23;;;;;;;3.25;1.30;;;;;;;18.46;67.92;98646.31;4912135;29;20418;-71
2021/08/02 10:53:56;;;;;;;6.88;1.58;;;;;;;17.80;75.91;98661.94;4911347;29;20028;-71
2021/08/02 10:56:26;;;;;;;3.13;1.75;;;;;;;16.90;79.51;98667.03;4912372;29;20039;-71
2021/08/02 10:58:52;;;;;;;21.85;3.10;;;;;;;16.93;83.52;98659.91;4912202;29;20024;-71
2021/08/02 11:01:20;;;;;;;7.30;2.80;;;;;;;16.31;91.28;98681.81;4913403;29;20023;-74
2021/08/02 11:03:45;;;;;;;9.38;2.45;;;;;;;16.24;92.16;98658.59;4907409;29;20614;-73
2021/08/02 11:06:13;;;;;;;6.00;2.83;;;;;;;15.35;95.99;98662.22;4913278;29;20115;-73
2021/08/02 11:08:49;;;;;;;6.10;2.67;;;;;;;15.19;97.90;98661.97;4899643;29;20500;-74
2021/08/02 11:11:22;;;;;;;5.50;3.15;;;;;;;15.21;98.49;98674.94;4913707;29;20780;-74
2021/08/02 11:13:48;;;;;;;9.23;3.10;;;;;;;15.12;98.94;98678.75;4913167;29;20032;-73
2021/08/02 11:16:13;;;;;;;5.40;2.20;;;;;;;14.79;94.10;98678.25;4910122;29;20067;-72
2021/08/02 11:18:42;;;;;;;6.18;2.50;;;;;;;14.81;96.81;98687.72;4911436;29;20036;-72
2021/08/02 11:21:08;;;;;;;6.70;2.28;;;;;;;14.95;97.02;98682.00;4913521;29;20020;-73
2021/08/02 11:23:35;;;;;;;7.03;2.35;;;;;;;15.35;99.53;98689.16;4906733;29;20032;-73
2021/08/02 11:26:05;;;;;;;6.65;2.63;;;;;;;15.36;97.96;98690.00;4908724;29;20027;-74
2021/08/02 11:28:39;;;;;;;8.20;2.17;;;;;;;15.78;93.15;98687.50;4911985;29;20164;-73
2021/08/02 11:31:04;;;;;;;20.73;12.45;;;;;;;16.51;93.86;98688.78;4909405;29;20024;-73
2021/08/02 11:33:33;;;;;;;2.67;2.13;;;;;;;17.45;85.35;98688.03;4905559;29;20028;-72
2021/08/02 11:35:59;;;;;;;2.35;1.88;;;;;;;18.64;82.69;98682.09;4905699;29;20532;-73
2021/08/02 11:38:38;;;;;;;10.07;5.93;;;;;;;19.93;76.28;98680.34;4901709;29;20115;-74
2021/08/02 11:41:04;;;;;;;2.00;1.30;;;;;;;22.46;65.04;98673.28;4900857;29;20046;-74
2021/08/02 11:43:38;;;;;;;2.92;1.10;;;;;;;23.01;62.61;98687.97;4903164;29;20493;-74
2021/08/02 11:46:04;;;;;;;1.63;1.10;;;;;;;21.53;66.44;98696.13;4901607;29;20246;-75
2021/08/02 11:48:29;;;;;;;3.03;1.63;;;;;;;20.49;71.10;98697.25;4903288;29;20049;-73
2021/08/02 11:50:55;;;;;;;2.58;1.38;;;;;;;19.23;73.39;98706.13;4905458;29;20030;-73
2021/08/02 11:53:31;;;;;;;3.63;1.63;;;;;;;18.69;77.21;98701.13;4902718;29;20031;-73
2021/08/02 11:55:56;;;;;;;1.58;1.30;;;;;;;18.19;79.63;98691.41;4893114;29;20106;-75
2021/08/02 11:58:22;;;;;;;1.75;1.45;;;;;;;16.97;81.47;98684.19;4896089;29;20438;-74
2021/08/02 12:00:58;;;;;;;2.60;1.48;;;;;;;17.33;78.86;98667.66;4891533;29;20040;-73
2021/08/02 12:03:24;;;;;;;1.42;1.30;;;;;;;17.55;78.70;98663.13;4894960;29;20027;-73
2021/08/02 12:05:50;;;;;;;1.50;1.40;;;;;;;17.56;84.54;98667.44;4891920;29;20028;-73
2021/08/02 12:08:19;;;;;;;1.77;0.98;;;;;;;18.45;76.03;98665.63;4887965;29;20110;-73
2021/08/02 12:11:14;;;;;;;4.38;1.25;;;;;;;20.09;66.45;98665.38;4884098;29;20032;-73
2021/08/02 12:13:45;;;;;;;1.20;1.10;;;;;;;20.75;63.06;98664.94;4874711;29;20044;-73
2021/08/02 12:16:23;;;;;;;2.83;1.30;;;;;;;20.48;64.48;98661.34;4876302;29;20028;-74
2021/08/02 12:18:50;;;;;;;1.70;1.10;;;;;;;21.68;65.77;98647.66;4876463;29;20043;-73
2021/08/02 12:21:22;;;;;;;2.80;1.20;;;;;;;21.50;60.97;98660.22;4874601;29;20175;-75
2021/08/02 12:23:48;;;;;;;1.77;1.20;;;;;;;20.49;62.21;98668.28;4873630;29;20358;-73
2021/08/02 12:26:21;;;;;;;2.85;1.15;;;;;;;20.16;66.66;98666.72;4885690;29;20047;-73
2021/08/02 12:28:48;;;;;;;0.93;0.93;;;;;;;20.18;67.00;98664.84;4889990;29;20095;-73
2021/08/02 12:31:17;;;;;;;1.88;1.27;;;;;;;20.68;70.24;98674.13;4886213;29;20122;-74
2021/08/02 12:33:46;;;;;;;6.00;1.10;;;;;;;19.79;69.52;98672.41;4892843;29;20078;-73
2021/08/02 12:36:11;;;;;;;2.72;1.00;;;;;;;19.77;69.41;98675.97;4887085;29;20040;-74
2021/08/02 12:38:48;;;;;;;2.33;1.15;;;;;;;20.47;67.35;98670.19;4896255;29;20123;-73
2021/08/02 12:41:14;;;;;;;1.77;1.10;;;;;;;20.31;71.40;98670.22;4899434;29;20036;-73
2021/08/02 12:43:42;;;;;;;3.78;1.40;;;;;;;20.18;72.99;98667.47;4901882;29;20123;-74
2021/08/02 12:46:08;;;;;;;2.85;1.48;;;;;;;19.96;69.87;98661.75;4904251;29;20028;-74
2021/08/02 12:48:33;;;;;;;2.78;1.20;;;;;;;19.75;69.34;98666.47;4904834;29;20048;-75
2021/08/02 12:50:58;;;;;;;1.25;1.15;;;;;;;19.65;72.27;98652.16;4904471;29;21010;-73
2021/08/02 12:53:24;;;;;;;1.27;1.17;;;;;;;19.92;72.24;98636.56;4901671;29;20071;-73
2021/08/02 12:55:49;;;;;;;21.98;12.77;;;;;;;20.10;72.80;98634.66;4901948;29;20056;-73
2021/08/02 12:58:15;;;;;;;3.40;2.70;;;;;;;20.11;73.51;98639.81;4902669;29;20059;-73
2021/08/02 13:00:43;;;;;;;3.22;1.33;;;;;;;20.91;69.10;98637.66;4905019;29;20056;-73
2021/08/02 13:03:08;;;;;;;1.98;1.15;;;;;;;19.96;72.07;98638.09;4904530;29;20490;-73
2021/08/02 13:05:33;;;;;;;2.33;1.27;;;;;;;20.36;70.45;98635.75;4901235;29;20045;-73
2021/08/02 13:07:59;;;;;;;6.82;1.40;;;;;;;20.49;70.65;98639.34;4904657;29;20039;-73
2021/08/02 13:10:28;;;;;;;5.10;3.78;;;;;;;21.04;69.40;98635.94;4903626;29;20114;-74
2021/08/02 13:12:53;;;;;;;3.28;1.80;;;;;;;20.99;70.47;98625.69;4903342;29;20079;-74
2021/08/02 13:15:18;;;;;;;4.57;1.20;;;;;;;21.05;69.41;98625.31;4904252;29;20431;-73
2021/08/02 13:17:45;;;;;;;1.52;1.17;;;;;;;21.82;63.97;98620.38;4904686;29;20811;-73
2021/08/02 13:20:11;;;;;;;3.28;1.10;;;;;;;21.99;64.18;98627.97;4907661;29;20040;-73
2021/08/02 13:22:48;;;;;;;1.70;1.10;;;;;;;22.03;62.56;98631.28;4906385;29;20024;-73
2021/08/02 13:27:58;;;;;;;3.10;1.40;;;;;;;22.53;59.56;98627.00;4903931;29;20740;-75
2021/08/02 13:30:24;;;;;;;1.75;1.00;;;;;;;21.73;58.40;98624.44;4902060;29;20043;-74
2021/08/02 13:32:49;;;;;;;2.45;1.20;;;;;;;22.09;62.12;98620.28;4899860;29;20137;-73
2021/08/02 13:35:15;;;;;;;1.23;1.05;;;;;;;22.18;61.67;98619.72;4901210;29;20039;-73
2021/08/02 13:37:40;;;;;;;2.10;1.10;;;;;;;21.50;60.98;98617.19;4899647;29;20477;-73
2021/08/02 13:40:06;;;;;;;1.40;0.90;;;;;;;21.25;63.41;98610.84;4899198;29;20115;-73
2021/08/02 13:42:33;;;;;;;8.48;5.70;;;;;;;21.16;63.24;98611.44;4896526;29;20032;-74
2021/08/02 13:44:58;;;;;;;1.88;1.60;;;;;;;20.84;67.95;98620.53;4900378;29;20085;-73
2021/08/02 13:47:27;;;;;;;1.20;1.10;;;;;;;20.52;72.26;98626.00;4900994;29;20031;-73
2021/08/02 13:49:53;;;;;;;1.90;1.05;;;;;;;20.29;72.17;98629.97;4901160;29;20028;-73
2021/08/02 13:52:18;;;;;;;2.15;1.20;;;;;;;20.10;72.93;98629.38;4900520;29;20036;-74
2021/08/02 13:54:43;;;;;;;2.13;1.42;;;;;;;20.08;75.94;98629.47;4902357;29;20038;-73
2021/08/02 13:57:10;;;;;;;1.92;1.10;;;;;;;19.97;76.65;98624.03;4900884;29;20031;-73
2021/08/02 13:59:36;;;;;;;1.77;1.00;;;;;;;20.07;75.54;98624.31;4904587;29;20035;-73
2021/08/02 14:02:02;;;;;;;6.05;2.50;;;;;;;19.99;75.46;98612.47;4907429;29;20427;-73
2021/08/02 14:04:28;;;;;;;1.98;1.40;;;;;;;20.19;72.05;98615.69;4907060;29;20032;-73
2021/08/02 14:06:53;;;;;;;2.15;0.90;;;;;;;20.07;68.88;98614.66;4907078;29;20035;-73
2021/08/02 14:09:18;;;;;;;2.35;1.30;;;;;;;19.71;72.62;98613.22;4905413;29;21100;-73
2021/08/02 14:11:49;;;;;;;1.92;1.20;;;;;;;19.85;69.79;98606.31;4907362;29;20063;-73
2021/08/02 14:14:15;;;;;;;1.30;1.17;;;;;;;20.35;71.81;98607.72;4907119;29;20047;-73
2021/08/02 14:16:57;;;;;;;3.00;1.10;;;;;;;20.90;65.72;98593.81;4907368;29;20050;-73
2021/08/02 14:19:27;;;;;;;2.13;1.20;;;;;;;21.16;68.14;98593.00;4907284;29;20393;-73
2021/08/02 14:21:58;;;;;;;2.60;1.00;;;;;;;21.15;68.47;98582.56;4906471;29;20528;-73
2021/08/02 14:24:23;;;;;;;1.25;0.90;;;;;;;21.24;67.90;98580.19;4905433;29;20516;-73
2021/08/02 14:26:49;;;;;;;2.00;1.00;;;;;;;21.28;57.68;98579.03;4904406;29;20036;-73
2021/08/02 14:29:15;;;;;;;1.60;1.10;;;;;;;20.76;63.60;98584.16;4904011;29;20123;-74
2021/08/02 14:31:40;;;;;;;3.78;1.05;;;;;;;19.61;67.74;98585.78;4904642;29;20032;-73
2021/08/02 14:34:06;;;;;;;1.95;0.68;;;;;;;19.95;66.25;98594.31;4908859;29;20034;-74
2021/08/02 14:36:31;;;;;;;1.60;0.90;;;;;;;20.60;60.93;98599.19;4908507;29;20099;-75
2021/08/02 14:39:03;;;;;;;0.75;0.70;;;;;;;20.82;62.86;98599.56;4907413;29;20059;-74
2021/08/02 14:42:00;;;;;;;0.70;0.70;;;;;;;20.65;60.14;98599.78;4907549;29;20059;-73
2021/08/02 14:44:36;;;;;;;1.90;1.17;;;;;;;20.43;63.20;98605.47;4911213;29;20549;-73
2021/08/02 14:47:04;;;;;;;1.40;0.90;;;;;;;20.98;61.92;98597.66;4908103;29;20413;-73
2021/08/02 14:49:30;;;;;;;2.17;1.10;;;;;;;20.58;64.71;98604.56;4908311;29;20032;-73
2021/08/02 14:51:59;;;;;;;1.20;0.90;;;;;;;20.70;64.54;98598.53;4908003;29;20028;-73
2021/08/02 14:54:24;;;;;;;4.60;1.00;;;;;;;20.90;62.09;98599.09;4908237;29;20036;-73
2021/08/02 14:56:49;;;;;;;4.38;1.45;;;;;;;20.76;60.64;98595.53;4908004;29;20516;-74
2021/08/02 14:59:15;;;;;;;4.05;1.75;;;;;;;20.79;62.90;98594.47;4908779;29;20524;-73
2021/08/02 15:01:42;;;;;;;3.88;1.30;;;;;;;20.74;64.87;98599.19;4908536;29;20068;-74
2021/08/02 15:04:09;;;;;;;1.52;1.17;;;;;;;20.51;66.46;98593.56;4908003;29;20028;-74
2021/08/02 15:06:37;;;;;;;1.55;1.20;;;;;;;20.16;68.68;98592.19;4908359;29;20056;-73
2021/08/02 15:09:05;;;;;;;2.20;1.02;;;;;;;19.89;67.55;98592.06;4908221;29;20059;-73
2021/08/02 15:11:32;;;;;;;2.10;0.98;;;;;;;20.23;64.59;98589.09;4907832;29;20135;-73
2021/08/02 15:13:59;;;;;;;1.58;1.20;;;;;;;19.45;72.60;98590.19;4908480;29;20119;-73
2021/08/02 15:16:52;;;;;;;1.20;1.10;;;;;;;19.42;73.71;98591.19;4908142;29;20032;-73
2021/08/02 15:19:22;;;;;;;5.68;1.33;;;;;;;19.39;69.20;98585.25;4908361;29;20028;-74
2021/08/02 15:21:53;;;;;;;1.67;1.10;;;;;;;19.62;72.85;98576.94;4907245;29;20037;-74
2021/08/02 15:24:19;;;;;;;1.20;1.10;;;;;;;19.20;70.15;98583.72;4907884;29;20039;-73
2021/08/02 15:26:47;;;;;;;3.00;1.20;;;;;;;19.55;69.37;98585.25;4908129;29;20498;-73
2021/08/02 15:29:18;;;;;;;1.70;1.02;;;;;;;20.36;66.96;98583.94;4907793;29;20493;-74
2021/08/02 15:31:48;;;;;;;1.38;0.98;;;;;;;20.78;64.55;98580.47;4907937;29;20039;-74
2021/08/02 15:34:13;;;;;;;1.60;0.90;;;;;;;20.21;63.61;98591.00;4907648;29;20035;-73
2021/08/02 15:36:42;;;;;;;3.15;1.17;;;;;;;20.56;63.44;98592.44;4907510;29;20031;-73
2021/08/02 15:39:10;;;;;;;6.77;1.07;;;;;;;20.01;67.03;98583.44;4907518;29;20040;-72
2021/08/02 15:41:36;;;;;;;1.42;1.10;;;;;;;20.25;63.42;98592.47;4907249;29;20302;-73
2021/08/02 15:44:02;;;;;;;4.38;1.17;;;;;;;20.49;61.98;98589.31;4908548;29;20031;-73
2021/08/02 15:46:28;;;;;;;2.90;1.27;;;;;;;19.73;67.20;98590.34;4907392;29;20020;-74
2021/08/02 15:48:54;;;;;;;1.60;1.25;;;;;;;19.84;65.53;98588.84;4907157;29;20379;-73
2021/08/02 15:51:22;;;;;;;1.25;1.02;;;;;;;19.11;69.61;98592.09;4907412;29;20446;-73